sensor_id;sensor_type;location;lat;lon;timestamp;P1;durP1;ratioP1;P2;durP2;ratioP2
787;SDS011;16074;42.708;23.312;2023-09-30T00:00:14;15.53;;;12.83;;
787;SDS011;16074;42.708;23.312;2023-09-30T00:02:43;18.27;;;13.30;;
787;SDS011;16074;42.708;23.312;2023-09-30T00:05:12;15.50;;;13.20;;
787;SDS011;16074;42.708;23.312;2023-09-30T00:07:41;15.60;;;13.07;;
787;SDS011;16074;42.708;23.312;2023-09-30T00:10:10;13.57;;;12.20;;
787;SDS011;16074;42.708;23.312;2023-09-30T00:12:38;16.70;;;12.90;;
787;SDS011;16074;42.708;23.312;2023-09-30T00:15:08;12.63;;;11.43;;
787;SDS011;16074;42.708;23.312;2023-09-30T00:17:37;14.23;;;12.53;;
787;SDS011;16074;42.708;23.312;2023-09-30T00:20:06;12.47;;;11.27;;
787;SDS011;16074;42.708;23.312;2023-09-30T00:22:36;17.20;;;12.60;;
787;SDS011;16074;42.708;23.312;2023-09-30T00:25:05;14.03;;;12.23;;
787;SDS011;16074;42.708;23.312;2023-09-30T00:27:35;14.10;;;12.70;;
787;SDS011;16074;42.708;23.312;2023-09-30T00:30:04;19.23;;;10.90;;
787;SDS011;16074;42.708;23.312;2023-09-30T00:32:35;13.43;;;12.00;;
787;SDS011;16074;42.708;23.312;2023-09-30T00:35:04;14.80;;;10.87;;
787;SDS011;16074;42.708;23.312;2023-09-30T00:37:38;11.43;;;10.33;;
787;SDS011;16074;42.708;23.312;2023-09-30T00:40:07;14.17;;;10.90;;
787;SDS011;16074;42.708;23.312;2023-09-30T00:42:38;11.20;;;10.20;;
787;SDS011;16074;42.708;23.312;2023-09-30T00:45:08;13.60;;;10.37;;
787;SDS011;16074;42.708;23.312;2023-09-30T00:47:38;11.63;;;10.60;;
787;SDS011;16074;42.708;23.312;2023-09-30T00:50:09;19.67;;;11.37;;
787;SDS011;16074;42.708;23.312;2023-09-30T00:52:39;13.77;;;11.27;;
787;SDS011;16074;42.708;23.312;2023-09-30T00:55:08;13.80;;;11.27;;
787;SDS011;16074;42.708;23.312;2023-09-30T00:57:37;15.03;;;11.60;;
787;SDS011;16074;42.708;23.312;2023-09-30T01:00:07;10.53;;;9.43;;
787;SDS011;16074;42.708;23.312;2023-09-30T01:02:40;12.27;;;9.50;;
787;SDS011;16074;42.708;23.312;2023-09-30T01:05:11;11.33;;;8.77;;
787;SDS011;16074;42.708;23.312;2023-09-30T01:07:40;15.43;;;9.77;;
787;SDS011;16074;42.708;23.312;2023-09-30T01:10:08;14.83;;;10.20;;
787;SDS011;16074;42.708;23.312;2023-09-30T01:12:37;11.37;;;10.23;;
787;SDS011;16074;42.708;23.312;2023-09-30T01:15:05;13.70;;;9.87;;
787;SDS011;16074;42.708;23.312;2023-09-30T01:17:34;12.50;;;9.80;;
787;SDS011;16074;42.708;23.312;2023-09-30T01:20:05;10.30;;;8.83;;
787;SDS011;16074;42.708;23.312;2023-09-30T01:22:37;13.23;;;10.27;;
787;SDS011;16074;42.708;23.312;2023-09-30T01:25:06;13.60;;;9.83;;
787;SDS011;16074;42.708;23.312;2023-09-30T01:27:36;18.93;;;9.70;;
787;SDS011;16074;42.708;23.312;2023-09-30T01:30:05;9.80;;;8.87;;
787;SDS011;16074;42.708;23.312;2023-09-30T01:32:38;11.17;;;9.97;;
787;SDS011;16074;42.708;23.312;2023-09-30T01:35:06;20.07;;;9.90;;
787;SDS011;16074;42.708;23.312;2023-09-30T01:37:39;12.40;;;10.10;;
787;SDS011;16074;42.708;23.312;2023-09-30T01:40:08;12.90;;;10.63;;
787;SDS011;16074;42.708;23.312;2023-09-30T01:42:38;13.00;;;10.47;;
787;SDS011;16074;42.708;23.312;2023-09-30T01:45:07;12.13;;;10.97;;
787;SDS011;16074;42.708;23.312;2023-09-30T01:47:37;13.83;;;12.33;;
787;SDS011;16074;42.708;23.312;2023-09-30T01:50:05;11.00;;;10.07;;
787;SDS011;16074;42.708;23.312;2023-09-30T01:52:34;13.60;;;10.90;;
787;SDS011;16074;42.708;23.312;2023-09-30T01:55:04;16.10;;;11.90;;
787;SDS011;16074;42.708;23.312;2023-09-30T01:57:33;11.27;;;10.23;;
787;SDS011;16074;42.708;23.312;2023-09-30T02:00:01;12.73;;;11.30;;
787;SDS011;16074;42.708;23.312;2023-09-30T02:02:38;12.60;;;10.70;;
787;SDS011;16074;42.708;23.312;2023-09-30T02:05:07;18.37;;;11.40;;
787;SDS011;16074;42.708;23.312;2023-09-30T02:07:36;11.00;;;9.90;;
787;SDS011;16074;42.708;23.312;2023-09-30T02:10:07;12.23;;;11.03;;
787;SDS011;16074;42.708;23.312;2023-09-30T02:12:36;13.17;;;11.87;;
787;SDS011;16074;42.708;23.312;2023-09-30T02:15:05;11.33;;;10.33;;
787;SDS011;16074;42.708;23.312;2023-09-30T02:17:34;12.60;;;11.17;;
787;SDS011;16074;42.708;23.312;2023-09-30T02:20:03;13.80;;;9.70;;
787;SDS011;16074;42.708;23.312;2023-09-30T02:22:40;16.30;;;11.40;;
787;SDS011;16074;42.708;23.312;2023-09-30T02:25:12;11.50;;;10.30;;
787;SDS011;16074;42.708;23.312;2023-09-30T02:27:41;13.50;;;9.83;;
787;SDS011;16074;42.708;23.312;2023-09-30T02:30:10;10.83;;;9.80;;
787;SDS011;16074;42.708;23.312;2023-09-30T02:32:43;10.90;;;9.93;;
787;SDS011;16074;42.708;23.312;2023-09-30T02:35:13;11.60;;;10.57;;
787;SDS011;16074;42.708;23.312;2023-09-30T02:37:42;11.63;;;10.43;;
787;SDS011;16074;42.708;23.312;2023-09-30T02:40:12;10.90;;;9.80;;
787;SDS011;16074;42.708;23.312;2023-09-30T02:42:41;11.00;;;9.90;;
787;SDS011;16074;42.708;23.312;2023-09-30T02:45:10;15.73;;;10.00;;
787;SDS011;16074;42.708;23.312;2023-09-30T02:47:39;11.40;;;10.30;;
787;SDS011;16074;42.708;23.312;2023-09-30T02:50:08;11.63;;;10.43;;
787;SDS011;16074;42.708;23.312;2023-09-30T02:52:38;11.87;;;9.90;;
787;SDS011;16074;42.708;23.312;2023-09-30T02:55:08;12.20;;;9.23;;
787;SDS011;16074;42.708;23.312;2023-09-30T02:57:38;14.30;;;10.00;;
787;SDS011;16074;42.708;23.312;2023-09-30T03:00:08;10.93;;;9.50;;
787;SDS011;16074;42.708;23.312;2023-09-30T03:02:48;11.70;;;9.60;;
787;SDS011;16074;42.708;23.312;2023-09-30T03:05:16;11.70;;;9.63;;
787;SDS011;16074;42.708;23.312;2023-09-30T03:07:44;15.93;;;10.23;;
787;SDS011;16074;42.708;23.312;2023-09-30T03:10:13;13.23;;;11.20;;
787;SDS011;16074;42.708;23.312;2023-09-30T03:12:48;13.30;;;11.60;;
787;SDS011;16074;42.708;23.312;2023-09-30T03:15:17;16.60;;;11.37;;
787;SDS011;16074;42.708;23.312;2023-09-30T03:17:45;10.33;;;9.30;;
787;SDS011;16074;42.708;23.312;2023-09-30T03:20:19;17.80;;;11.93;;
787;SDS011;16074;42.708;23.312;2023-09-30T03:22:48;14.47;;;11.90;;
787;SDS011;16074;42.708;23.312;2023-09-30T03:25:17;11.47;;;10.20;;
787;SDS011;16074;42.708;23.312;2023-09-30T03:27:46;11.40;;;10.20;;
787;SDS011;16074;42.708;23.312;2023-09-30T03:30:17;11.40;;;10.30;;
787;SDS011;16074;42.708;23.312;2023-09-30T03:32:47;11.07;;;9.97;;
787;SDS011;16074;42.708;23.312;2023-09-30T03:35:15;10.03;;;9.03;;
787;SDS011;16074;42.708;23.312;2023-09-30T03:37:45;10.23;;;9.33;;
787;SDS011;16074;42.708;23.312;2023-09-30T03:40:14;10.43;;;9.40;;
787;SDS011;16074;42.708;23.312;2023-09-30T03:42:47;12.17;;;10.93;;
787;SDS011;16074;42.708;23.312;2023-09-30T03:45:18;11.70;;;10.67;;
787;SDS011;16074;42.708;23.312;2023-09-30T03:47:46;18.57;;;10.40;;
787;SDS011;16074;42.708;23.312;2023-09-30T03:50:16;15.30;;;9.87;;
787;SDS011;16074;42.708;23.312;2023-09-30T03:52:44;15.90;;;10.27;;
787;SDS011;16074;42.708;23.312;2023-09-30T03:55:14;12.30;;;10.10;;
787;SDS011;16074;42.708;23.312;2023-09-30T03:57:47;14.50;;;9.40;;
787;SDS011;16074;42.708;23.312;2023-09-30T04:00:19;13.03;;;8.90;;
787;SDS011;16074;42.708;23.312;2023-09-30T04:02:49;11.03;;;9.40;;
787;SDS011;16074;42.708;23.312;2023-09-30T04:05:21;14.83;;;9.73;;
787;SDS011;16074;42.708;23.312;2023-09-30T04:07:53;10.17;;;9.23;;
787;SDS011;16074;42.708;23.312;2023-09-30T04:10:21;14.93;;;10.13;;
787;SDS011;16074;42.708;23.312;2023-09-30T04:12:50;10.47;;;9.50;;
787;SDS011;16074;42.708;23.312;2023-09-30T04:15:20;11.30;;;10.17;;
787;SDS011;16074;42.708;23.312;2023-09-30T04:17:49;12.10;;;9.20;;
787;SDS011;16074;42.708;23.312;2023-09-30T04:20:18;11.00;;;10.00;;
787;SDS011;16074;42.708;23.312;2023-09-30T04:22:50;9.87;;;8.87;;
787;SDS011;16074;42.708;23.312;2023-09-30T04:25:24;17.07;;;10.17;;
787;SDS011;16074;42.708;23.312;2023-09-30T04:27:53;12.27;;;9.67;;
787;SDS011;16074;42.708;23.312;2023-09-30T04:30:22;10.40;;;9.30;;
787;SDS011;16074;42.708;23.312;2023-09-30T04:32:51;12.57;;;9.73;;
787;SDS011;16074;42.708;23.312;2023-09-30T04:35:20;22.30;;;9.57;;
787;SDS011;16074;42.708;23.312;2023-09-30T04:37:49;10.37;;;9.30;;
787;SDS011;16074;42.708;23.312;2023-09-30T04:40:18;13.83;;;10.50;;
787;SDS011;16074;42.708;23.312;2023-09-30T04:42:47;11.20;;;10.07;;
787;SDS011;16074;42.708;23.312;2023-09-30T04:45:16;22.70;;;9.97;;
787;SDS011;16074;42.708;23.312;2023-09-30T04:47:48;11.63;;;8.33;;
787;SDS011;16074;42.708;23.312;2023-09-30T04:50:17;13.40;;;10.10;;
787;SDS011;16074;42.708;23.312;2023-09-30T04:52:49;9.83;;;8.83;;
787;SDS011;16074;42.708;23.312;2023-09-30T04:55:18;9.13;;;8.33;;
787;SDS011;16074;42.708;23.312;2023-09-30T04:57:46;14.77;;;8.50;;
787;SDS011;16074;42.708;23.312;2023-09-30T05:00:16;9.00;;;8.10;;
787;SDS011;16074;42.708;23.312;2023-09-30T05:02:46;11.90;;;9.80;;
787;SDS011;16074;42.708;23.312;2023-09-30T05:05:16;11.33;;;9.47;;
787;SDS011;16074;42.708;23.312;2023-09-30T05:07:44;11.53;;;10.43;;
787;SDS011;16074;42.708;23.312;2023-09-30T05:10:14;9.93;;;8.77;;
787;SDS011;16074;42.708;23.312;2023-09-30T05:12:43;10.07;;;9.10;;
787;SDS011;16074;42.708;23.312;2023-09-30T05:15:14;20.70;;;10.40;;
787;SDS011;16074;42.708;23.312;2023-09-30T05:17:44;18.30;;;9.60;;
787;SDS011;16074;42.708;23.312;2023-09-30T05:20:14;10.93;;;9.27;;
787;SDS011;16074;42.708;23.312;2023-09-30T05:22:45;25.37;;;10.57;;
787;SDS011;16074;42.708;23.312;2023-09-30T05:25:13;11.83;;;9.70;;
787;SDS011;16074;42.708;23.312;2023-09-30T05:27:44;14.10;;;10.20;;
787;SDS011;16074;42.708;23.312;2023-09-30T05:30:15;13.17;;;10.47;;
787;SDS011;16074;42.708;23.312;2023-09-30T05:32:46;12.70;;;10.00;;
787;SDS011;16074;42.708;23.312;2023-09-30T05:35:16;14.63;;;13.10;;
787;SDS011;16074;42.708;23.312;2023-09-30T05:37:44;15.33;;;12.87;;
787;SDS011;16074;42.708;23.312;2023-09-30T05:40:13;16.80;;;11.57;;
787;SDS011;16074;42.708;23.312;2023-09-30T05:42:50;15.33;;;11.93;;
787;SDS011;16074;42.708;23.312;2023-09-30T05:45:20;14.90;;;12.20;;
787;SDS011;16074;42.708;23.312;2023-09-30T05:47:50;12.77;;;11.43;;
787;SDS011;16074;42.708;23.312;2023-09-30T05:50:22;18.43;;;11.70;;
787;SDS011;16074;42.708;23.312;2023-09-30T05:52:54;20.53;;;11.57;;
787;SDS011;16074;42.708;23.312;2023-09-30T05:55:23;12.20;;;11.03;;
787;SDS011;16074;42.708;23.312;2023-09-30T05:57:53;14.53;;;13.00;;
787;SDS011;16074;42.708;23.312;2023-09-30T06:00:22;12.67;;;10.87;;
787;SDS011;16074;42.708;23.312;2023-09-30T06:02:56;10.90;;;9.80;;
787;SDS011;16074;42.708;23.312;2023-09-30T06:05:26;10.37;;;8.73;;
787;SDS011;16074;42.708;23.312;2023-09-30T06:07:58;11.50;;;10.03;;
787;SDS011;16074;42.708;23.312;2023-09-30T06:10:30;10.50;;;9.50;;
787;SDS011;16074;42.708;23.312;2023-09-30T06:12:58;14.07;;;10.87;;
787;SDS011;16074;42.708;23.312;2023-09-30T06:15:27;16.10;;;9.53;;
787;SDS011;16074;42.708;23.312;2023-09-30T06:17:56;11.67;;;10.47;;
787;SDS011;16074;42.708;23.312;2023-09-30T06:20:28;15.47;;;10.90;;
787;SDS011;16074;42.708;23.312;2023-09-30T06:22:57;14.17;;;11.40;;
787;SDS011;16074;42.708;23.312;2023-09-30T06:25:27;15.67;;;11.23;;
787;SDS011;16074;42.708;23.312;2023-09-30T06:27:57;21.77;;;11.27;;
787;SDS011;16074;42.708;23.312;2023-09-30T06:30:26;12.30;;;11.27;;
787;SDS011;16074;42.708;23.312;2023-09-30T06:32:58;14.17;;;12.00;;
787;SDS011;16074;42.708;23.312;2023-09-30T06:35:29;19.27;;;12.60;;
787;SDS011;16074;42.708;23.312;2023-09-30T06:38:01;13.67;;;10.70;;
787;SDS011;16074;42.708;23.312;2023-09-30T06:40:30;13.40;;;10.93;;
787;SDS011;16074;42.708;23.312;2023-09-30T06:42:58;10.93;;;9.83;;
787;SDS011;16074;42.708;23.312;2023-09-30T06:45:28;16.07;;;11.90;;
787;SDS011;16074;42.708;23.312;2023-09-30T06:47:56;19.77;;;11.23;;
787;SDS011;16074;42.708;23.312;2023-09-30T06:50:24;13.80;;;10.87;;
787;SDS011;16074;42.708;23.312;2023-09-30T06:52:55;18.77;;;11.90;;
787;SDS011;16074;42.708;23.312;2023-09-30T06:55:23;15.60;;;12.60;;
787;SDS011;16074;42.708;23.312;2023-09-30T06:57:53;12.67;;;11.47;;
787;SDS011;16074;42.708;23.312;2023-09-30T07:00:21;17.50;;;15.50;;
787;SDS011;16074;42.708;23.312;2023-09-30T07:02:50;11.83;;;10.90;;
787;SDS011;16074;42.708;23.312;2023-09-30T07:05:19;14.07;;;11.40;;
787;SDS011;16074;42.708;23.312;2023-09-30T07:07:47;12.60;;;11.40;;
787;SDS011;16074;42.708;23.312;2023-09-30T07:10:17;13.87;;;10.13;;
787;SDS011;16074;42.708;23.312;2023-09-30T07:12:45;10.17;;;9.27;;
787;SDS011;16074;42.708;23.312;2023-09-30T07:15:14;13.37;;;10.77;;
787;SDS011;16074;42.708;23.312;2023-09-30T07:17:42;11.90;;;9.67;;
787;SDS011;16074;42.708;23.312;2023-09-30T07:20:12;13.47;;;10.20;;
787;SDS011;16074;42.708;23.312;2023-09-30T07:22:41;13.50;;;9.90;;
787;SDS011;16074;42.708;23.312;2023-09-30T07:25:26;11.90;;;10.93;;
787;SDS011;16074;42.708;23.312;2023-09-30T07:27:54;15.10;;;10.30;;
787;SDS011;16074;42.708;23.312;2023-09-30T07:30:23;10.10;;;9.17;;
787;SDS011;16074;42.708;23.312;2023-09-30T07:32:51;11.80;;;10.67;;
787;SDS011;16074;42.708;23.312;2023-09-30T07:35:20;10.27;;;9.27;;
787;SDS011;16074;42.708;23.312;2023-09-30T07:37:48;10.97;;;9.87;;
787;SDS011;16074;42.708;23.312;2023-09-30T07:40:19;10.87;;;9.90;;
787;SDS011;16074;42.708;23.312;2023-09-30T07:42:50;12.00;;;9.70;;
787;SDS011;16074;42.708;23.312;2023-09-30T07:45:18;11.93;;;10.10;;
787;SDS011;16074;42.708;23.312;2023-09-30T07:47:47;12.00;;;9.77;;
787;SDS011;16074;42.708;23.312;2023-09-30T07:50:18;10.77;;;9.90;;
787;SDS011;16074;42.708;23.312;2023-09-30T07:52:46;12.27;;;11.03;;
787;SDS011;16074;42.708;23.312;2023-09-30T07:55:14;10.63;;;9.80;;
787;SDS011;16074;42.708;23.312;2023-09-30T07:57:43;12.87;;;9.97;;
787;SDS011;16074;42.708;23.312;2023-09-30T08:00:14;12.27;;;10.70;;
787;SDS011;16074;42.708;23.312;2023-09-30T08:02:44;11.77;;;10.33;;
787;SDS011;16074;42.708;23.312;2023-09-30T08:05:12;11.83;;;10.63;;
787;SDS011;16074;42.708;23.312;2023-09-30T08:07:41;13.17;;;8.80;;
787;SDS011;16074;42.708;23.312;2023-09-30T08:10:09;10.33;;;9.33;;
787;SDS011;16074;42.708;23.312;2023-09-30T08:12:41;14.90;;;9.87;;
787;SDS011;16074;42.708;23.312;2023-09-30T08:15:12;14.23;;;10.80;;
787;SDS011;16074;42.708;23.312;2023-09-30T08:17:43;9.10;;;8.20;;
787;SDS011;16074;42.708;23.312;2023-09-30T08:20:11;9.53;;;8.63;;
787;SDS011;16074;42.708;23.312;2023-09-30T08:22:40;11.33;;;8.40;;
787;SDS011;16074;42.708;23.312;2023-09-30T08:25:09;10.30;;;9.50;;
787;SDS011;16074;42.708;23.312;2023-09-30T08:27:38;10.07;;;9.17;;
787;SDS011;16074;42.708;23.312;2023-09-30T08:30:07;13.93;;;8.63;;
787;SDS011;16074;42.708;23.312;2023-09-30T08:32:39;11.87;;;10.67;;
787;SDS011;16074;42.708;23.312;2023-09-30T08:35:08;9.73;;;8.80;;
787;SDS011;16074;42.708;23.312;2023-09-30T08:37:37;14.13;;;9.40;;
787;SDS011;16074;42.708;23.312;2023-09-30T08:40:06;10.83;;;9.83;;
787;SDS011;16074;42.708;23.312;2023-09-30T08:42:36;13.23;;;10.30;;
787;SDS011;16074;42.708;23.312;2023-09-30T08:45:08;14.90;;;11.93;;
787;SDS011;16074;42.708;23.312;2023-09-30T08:47:42;16.80;;;12.20;;
787;SDS011;16074;42.708;23.312;2023-09-30T08:50:11;13.00;;;11.90;;
787;SDS011;16074;42.708;23.312;2023-09-30T08:52:41;12.67;;;10.57;;
787;SDS011;16074;42.708;23.312;2023-09-30T08:55:10;16.47;;;11.80;;
787;SDS011;16074;42.708;23.312;2023-09-30T08:57:40;13.13;;;11.90;;
787;SDS011;16074;42.708;23.312;2023-09-30T09:00:09;13.63;;;12.47;;
787;SDS011;16074;42.708;23.312;2023-09-30T09:02:40;16.07;;;11.83;;
787;SDS011;16074;42.708;23.312;2023-09-30T09:05:10;13.90;;;12.53;;
787;SDS011;16074;42.708;23.312;2023-09-30T09:07:39;13.90;;;12.43;;
787;SDS011;16074;42.708;23.312;2023-09-30T09:10:10;11.80;;;10.80;;
787;SDS011;16074;42.708;23.312;2023-09-30T09:12:41;12.03;;;10.93;;
787;SDS011;16074;42.708;23.312;2023-09-30T09:15:20;12.80;;;11.60;;
787;SDS011;16074;42.708;23.312;2023-09-30T09:17:51;12.63;;;11.57;;
787;SDS011;16074;42.708;23.312;2023-09-30T09:20:21;11.80;;;10.80;;
787;SDS011;16074;42.708;23.312;2023-09-30T09:22:53;13.63;;;11.37;;
787;SDS011;16074;42.708;23.312;2023-09-30T09:25:22;12.20;;;11.13;;
787;SDS011;16074;42.708;23.312;2023-09-30T09:27:52;13.07;;;11.53;;
787;SDS011;16074;42.708;23.312;2023-09-30T09:30:22;13.70;;;10.83;;
787;SDS011;16074;42.708;23.312;2023-09-30T09:32:59;12.70;;;10.77;;
787;SDS011;16074;42.708;23.312;2023-09-30T09:35:30;10.73;;;9.73;;
787;SDS011;16074;42.708;23.312;2023-09-30T09:38:00;11.40;;;10.20;;
787;SDS011;16074;42.708;23.312;2023-09-30T09:40:30;12.30;;;9.10;;
787;SDS011;16074;42.708;23.312;2023-09-30T09:43:00;11.50;;;10.40;;
787;SDS011;16074;42.708;23.312;2023-09-30T09:45:32;10.50;;;8.83;;
787;SDS011;16074;42.708;23.312;2023-09-30T09:48:02;10.37;;;9.23;;
787;SDS011;16074;42.708;23.312;2023-09-30T09:50:34;8.87;;;8.07;;
787;SDS011;16074;42.708;23.312;2023-09-30T09:53:05;14.10;;;8.50;;
787;SDS011;16074;42.708;23.312;2023-09-30T09:55:33;9.80;;;9.03;;
787;SDS011;16074;42.708;23.312;2023-09-30T09:58:05;9.43;;;8.10;;
787;SDS011;16074;42.708;23.312;2023-09-30T10:00:37;14.47;;;8.70;;
787;SDS011;16074;42.708;23.312;2023-09-30T10:03:07;9.00;;;8.20;;
787;SDS011;16074;42.708;23.312;2023-09-30T10:05:36;8.53;;;7.77;;
787;SDS011;16074;42.708;23.312;2023-09-30T10:08:07;8.57;;;7.80;;
787;SDS011;16074;42.708;23.312;2023-09-30T10:10:39;8.80;;;7.90;;
787;SDS011;16074;42.708;23.312;2023-09-30T10:13:08;7.90;;;7.10;;
787;SDS011;16074;42.708;23.312;2023-09-30T10:15:37;19.43;;;8.00;;
787;SDS011;16074;42.708;23.312;2023-09-30T10:18:09;10.97;;;9.17;;
787;SDS011;16074;42.708;23.312;2023-09-30T10:20:44;8.77;;;7.70;;
787;SDS011;16074;42.708;23.312;2023-09-30T10:23:23;9.03;;;8.33;;
787;SDS011;16074;42.708;23.312;2023-09-30T10:25:53;9.80;;;7.27;;
787;SDS011;16074;42.708;23.312;2023-09-30T10:28:44;7.20;;;6.50;;
787;SDS011;16074;42.708;23.312;2023-09-30T10:31:16;8.00;;;7.03;;
787;SDS011;16074;42.708;23.312;2023-09-30T10:36:50;7.57;;;6.00;;
787;SDS011;16074;42.708;23.312;2023-09-30T10:51:13;6.27;;;5.77;;
787;SDS011;16074;42.708;23.312;2023-09-30T10:53:47;8.17;;;6.83;;
787;SDS011;16074;42.708;23.312;2023-09-30T10:56:18;6.73;;;6.00;;
787;SDS011;16074;42.708;23.312;2023-09-30T10:58:48;7.67;;;7.10;;
787;SDS011;16074;42.708;23.312;2023-09-30T11:01:18;6.70;;;6.10;;
787;SDS011;16074;42.708;23.312;2023-09-30T11:03:47;6.67;;;6.07;;
787;SDS011;16074;42.708;23.312;2023-09-30T11:06:19;7.77;;;7.07;;
787;SDS011;16074;42.708;23.312;2023-09-30T11:08:52;7.30;;;6.70;;
787;SDS011;16074;42.708;23.312;2023-09-30T11:11:35;8.53;;;6.93;;
787;SDS011;16074;42.708;23.312;2023-09-30T11:14:16;7.20;;;6.50;;
787;SDS011;16074;42.708;23.312;2023-09-30T11:16:45;8.73;;;6.70;;
787;SDS011;16074;42.708;23.312;2023-09-30T11:19:15;7.87;;;7.17;;
787;SDS011;16074;42.708;23.312;2023-09-30T11:21:44;7.63;;;6.93;;
787;SDS011;16074;42.708;23.312;2023-09-30T11:24:14;7.37;;;6.70;;
787;SDS011;16074;42.708;23.312;2023-09-30T11:26:42;7.73;;;7.13;;
787;SDS011;16074;42.708;23.312;2023-09-30T11:29:12;7.40;;;6.70;;
787;SDS011;16074;42.708;23.312;2023-09-30T11:31:43;7.80;;;7.10;;
787;SDS011;16074;42.708;23.312;2023-09-30T11:34:14;9.10;;;8.20;;
787;SDS011;16074;42.708;23.312;2023-09-30T11:36:47;9.03;;;7.77;;
787;SDS011;16074;42.708;23.312;2023-09-30T11:39:25;9.73;;;7.13;;
787;SDS011;16074;42.708;23.312;2023-09-30T11:41:55;8.07;;;7.57;;
787;SDS011;16074;42.708;23.312;2023-09-30T11:44:25;11.43;;;8.10;;
787;SDS011;16074;42.708;23.312;2023-09-30T11:46:56;9.83;;;7.80;;
787;SDS011;16074;42.708;23.312;2023-09-30T11:49:28;7.40;;;6.70;;
787;SDS011;16074;42.708;23.312;2023-09-30T11:51:58;7.70;;;7.10;;
787;SDS011;16074;42.708;23.312;2023-09-30T11:54:32;7.73;;;7.17;;
787;SDS011;16074;42.708;23.312;2023-09-30T11:57:04;8.03;;;7.27;;
787;SDS011;16074;42.708;23.312;2023-09-30T11:59:32;7.80;;;7.00;;
787;SDS011;16074;42.708;23.312;2023-09-30T12:02:00;7.33;;;6.70;;
787;SDS011;16074;42.708;23.312;2023-09-30T12:04:40;8.17;;;7.47;;
787;SDS011;16074;42.708;23.312;2023-09-30T12:07:10;7.13;;;6.50;;
787;SDS011;16074;42.708;23.312;2023-09-30T12:09:40;7.60;;;6.97;;
787;SDS011;16074;42.708;23.312;2023-09-30T12:12:08;10.60;;;7.80;;
787;SDS011;16074;42.708;23.312;2023-09-30T12:14:39;7.63;;;6.80;;
787;SDS011;16074;42.708;23.312;2023-09-30T12:17:07;7.97;;;7.27;;
787;SDS011;16074;42.708;23.312;2023-09-30T12:19:39;9.07;;;7.70;;
787;SDS011;16074;42.708;23.312;2023-09-30T12:22:08;7.53;;;6.83;;
787;SDS011;16074;42.708;23.312;2023-09-30T12:24:39;8.97;;;7.60;;
787;SDS011;16074;42.708;23.312;2023-09-30T12:27:08;8.10;;;7.30;;
787;SDS011;16074;42.708;23.312;2023-09-30T12:29:36;7.70;;;7.00;;
787;SDS011;16074;42.708;23.312;2023-09-30T12:32:06;8.97;;;8.23;;
787;SDS011;16074;42.708;23.312;2023-09-30T12:34:35;7.60;;;7.00;;
787;SDS011;16074;42.708;23.312;2023-09-30T12:37:03;11.20;;;7.70;;
787;SDS011;16074;42.708;23.312;2023-09-30T12:39:32;7.73;;;7.23;;
787;SDS011;16074;42.708;23.312;2023-09-30T12:42:02;8.40;;;7.67;;
787;SDS011;16074;42.708;23.312;2023-09-30T12:44:35;10.47;;;7.77;;
787;SDS011;16074;42.708;23.312;2023-09-30T12:47:04;11.57;;;8.90;;
787;SDS011;16074;42.708;23.312;2023-09-30T12:49:33;8.03;;;7.43;;
787;SDS011;16074;42.708;23.312;2023-09-30T12:52:01;8.47;;;7.87;;
787;SDS011;16074;42.708;23.312;2023-09-30T12:54:31;8.27;;;7.43;;
787;SDS011;16074;42.708;23.312;2023-09-30T12:57:02;8.20;;;7.40;;
787;SDS011;16074;42.708;23.312;2023-09-30T12:59:30;7.60;;;7.13;;
787;SDS011;16074;42.708;23.312;2023-09-30T13:02:00;7.70;;;6.90;;
787;SDS011;16074;42.708;23.312;2023-09-30T13:04:29;10.93;;;7.57;;
787;SDS011;16074;42.708;23.312;2023-09-30T13:06:58;7.80;;;7.10;;
787;SDS011;16074;42.708;23.312;2023-09-30T13:09:26;8.30;;;7.60;;
787;SDS011;16074;42.708;23.312;2023-09-30T13:11:54;8.63;;;7.90;;
787;SDS011;16074;42.708;23.312;2023-09-30T13:14:28;9.87;;;7.60;;
787;SDS011;16074;42.708;23.312;2023-09-30T13:16:57;10.20;;;8.43;;
787;SDS011;16074;42.708;23.312;2023-09-30T13:19:25;9.17;;;8.30;;
787;SDS011;16074;42.708;23.312;2023-09-30T13:21:54;12.00;;;6.87;;
787;SDS011;16074;42.708;23.312;2023-09-30T13:24:23;10.03;;;8.23;;
787;SDS011;16074;42.708;23.312;2023-09-30T13:26:51;11.30;;;8.47;;
787;SDS011;16074;42.708;23.312;2023-09-30T13:29:20;10.00;;;9.20;;
787;SDS011;16074;42.708;23.312;2023-09-30T13:31:50;9.07;;;8.03;;
787;SDS011;16074;42.708;23.312;2023-09-30T13:34:18;8.80;;;7.83;;
787;SDS011;16074;42.708;23.312;2023-09-30T13:36:46;9.03;;;8.10;;
787;SDS011;16074;42.708;23.312;2023-09-30T13:39:15;8.47;;;7.87;;
787;SDS011;16074;42.708;23.312;2023-09-30T13:41:44;10.30;;;8.30;;
787;SDS011;16074;42.708;23.312;2023-09-30T13:44:13;8.87;;;7.77;;
787;SDS011;16074;42.708;23.312;2023-09-30T13:46:42;7.80;;;7.03;;
787;SDS011;16074;42.708;23.312;2023-09-30T13:49:12;9.07;;;8.27;;
787;SDS011;16074;42.708;23.312;2023-09-30T13:51:40;8.23;;;7.53;;
787;SDS011;16074;42.708;23.312;2023-09-30T13:54:09;9.17;;;8.27;;
787;SDS011;16074;42.708;23.312;2023-09-30T13:56:37;9.60;;;8.13;;
787;SDS011;16074;42.708;23.312;2023-09-30T13:59:06;8.83;;;7.97;;
787;SDS011;16074;42.708;23.312;2023-09-30T14:01:37;9.87;;;8.97;;
787;SDS011;16074;42.708;23.312;2023-09-30T14:04:08;9.83;;;8.23;;
787;SDS011;16074;42.708;23.312;2023-09-30T14:06:38;8.23;;;7.40;;
787;SDS011;16074;42.708;23.312;2023-09-30T14:09:07;9.60;;;8.00;;
787;SDS011;16074;42.708;23.312;2023-09-30T14:12:01;10.90;;;9.83;;
787;SDS011;16074;42.708;23.312;2023-09-30T14:14:31;7.70;;;7.00;;
787;SDS011;16074;42.708;23.312;2023-09-30T14:17:01;9.90;;;8.13;;
787;SDS011;16074;42.708;23.312;2023-09-30T14:19:34;9.20;;;8.30;;
787;SDS011;16074;42.708;23.312;2023-09-30T14:22:04;7.30;;;6.63;;
787;SDS011;16074;42.708;23.312;2023-09-30T14:24:33;8.60;;;7.83;;
787;SDS011;16074;42.708;23.312;2023-09-30T14:27:02;9.80;;;8.23;;
787;SDS011;16074;42.708;23.312;2023-09-30T14:29:31;8.47;;;7.70;;
787;SDS011;16074;42.708;23.312;2023-09-30T14:31:59;7.80;;;7.10;;
787;SDS011;16074;42.708;23.312;2023-09-30T14:34:29;7.53;;;6.90;;
787;SDS011;16074;42.708;23.312;2023-09-30T14:36:57;7.10;;;6.60;;
787;SDS011;16074;42.708;23.312;2023-09-30T14:39:27;7.53;;;6.53;;
787;SDS011;16074;42.708;23.312;2023-09-30T14:41:55;7.80;;;7.20;;
787;SDS011;16074;42.708;23.312;2023-09-30T14:44:24;8.40;;;7.87;;
787;SDS011;16074;42.708;23.312;2023-09-30T14:46:52;8.73;;;7.40;;
787;SDS011;16074;42.708;23.312;2023-09-30T14:49:22;7.90;;;7.20;;
787;SDS011;16074;42.708;23.312;2023-09-30T14:51:51;7.93;;;7.13;;
787;SDS011;16074;42.708;23.312;2023-09-30T14:54:20;9.03;;;8.13;;
787;SDS011;16074;42.708;23.312;2023-09-30T14:56:50;8.00;;;7.20;;
787;SDS011;16074;42.708;23.312;2023-09-30T14:59:19;7.47;;;6.77;;
787;SDS011;16074;42.708;23.312;2023-09-30T15:01:47;7.87;;;7.23;;
787;SDS011;16074;42.708;23.312;2023-09-30T15:04:16;9.03;;;7.80;;
787;SDS011;16074;42.708;23.312;2023-09-30T15:06:45;8.77;;;7.67;;
787;SDS011;16074;42.708;23.312;2023-09-30T15:09:13;7.33;;;6.83;;
787;SDS011;16074;42.708;23.312;2023-09-30T15:11:42;7.57;;;6.87;;
787;SDS011;16074;42.708;23.312;2023-09-30T15:14:11;10.33;;;8.30;;
787;SDS011;16074;42.708;23.312;2023-09-30T15:16:40;13.47;;;12.47;;